createdAt,value
2018-04-30T00:00:38.523Z,99551
2018-04-30T00:03:06.784Z,99551
2018-04-30T00:05:35.736Z,99542
2018-04-30T00:08:03.863Z,99539
2018-04-30T00:10:32.009Z,99536
2018-04-30T00:13:00.173Z,99472
2018-04-30T00:15:28.301Z,99522
2018-04-30T00:17:56.472Z,99518
2018-04-30T00:20:24.628Z,99524
2018-04-30T00:22:52.777Z,99518
2018-04-30T00:25:21.683Z,99508
2018-04-30T00:27:50.609Z,99495
2018-04-30T00:30:18.777Z,99493
2018-04-30T00:32:46.919Z,99487
2018-04-30T00:35:15.891Z,99475
2018-04-30T00:37:44.090Z,99466
2018-04-30T00:40:12.238Z,99454
2018-04-30T00:42:40.377Z,99455
2018-04-30T00:45:08.523Z,99455
2018-04-30T00:47:36.665Z,99444
2018-04-30T00:50:05.559Z,99440
2018-04-30T00:52:34.452Z,99440
2018-04-30T00:55:03.339Z,99440
2018-04-30T00:57:32.240Z,99433
2018-04-30T01:00:00.374Z,99431
2018-04-30T01:02:28.513Z,99436
2018-04-30T01:04:56.641Z,99422
2018-04-30T01:07:25.541Z,99413
2018-04-30T01:09:53.685Z,99409
2018-04-30T01:12:21.848Z,99402
2018-04-30T01:14:49.984Z,99405
2018-04-30T01:17:18.160Z,99398
2018-04-30T01:19:46.290Z,99402
2018-04-30T01:22:14.447Z,99397
2018-04-30T01:24:42.579Z,99395
2018-04-30T01:27:10.730Z,99377
2018-04-30T01:29:38.878Z,99371
2018-04-30T01:32:07.047Z,99371
2018-04-30T01:34:35.173Z,99367
2018-04-30T01:37:03.309Z,99373
2018-04-30T01:39:32.208Z,99366
2018-04-30T01:42:00.363Z,99359
2018-04-30T01:44:29.294Z,99344
2018-04-30T01:46:57.445Z,99336
2018-04-30T01:49:25.581Z,99342
2018-04-30T01:51:53.782Z,99332
2018-04-30T01:54:21.983Z,99328
2018-04-30T01:56:50.170Z,99322
2018-04-30T01:59:18.303Z,99311
2018-04-30T02:01:46.460Z,99311
2018-04-30T02:04:14.639Z,99299
2018-04-30T02:06:42.759Z,99284
2018-04-30T02:09:10.910Z,99270
2018-04-30T02:11:39.048Z,99260
2018-04-30T02:14:07.206Z,99267
2018-04-30T02:16:35.359Z,99240
2018-04-30T02:19:03.504Z,99249
2018-04-30T02:21:31.649Z,99237
2018-04-30T02:24:00.574Z,99219
2018-04-30T02:26:28.758Z,99211
2018-04-30T02:28:56.890Z,99209
2018-04-30T02:31:25.787Z,99199
2018-04-30T02:33:53.916Z,99202
2018-04-30T02:36:22.113Z,99177
2018-04-30T02:38:51.031Z,99179
2018-04-30T02:41:19.164Z,99169
2018-04-30T02:43:48.100Z,99172
2018-04-30T02:46:16.255Z,99148
2018-04-30T02:48:44.399Z,99160
2018-04-30T02:51:12.541Z,99156
2018-04-30T02:53:40.677Z,99145
2018-04-30T02:56:08.848Z,99119
2018-04-30T02:58:37.008Z,99117
2018-04-30T03:01:05.987Z,99098
2018-04-30T03:03:34.909Z,99096
2018-04-30T03:06:03.046Z,99087
2018-04-30T03:08:31.200Z,99085
2018-04-30T03:10:59.357Z,99073
2018-04-30T03:13:27.537Z,99077
2018-04-30T03:15:55.679Z,99070
2018-04-30T03:18:23.828Z,99063
2018-04-30T03:20:52.760Z,99049
2018-04-30T03:23:20.925Z,99062
2018-04-30T03:25:49.062Z,99054
2018-04-30T03:28:17.238Z,99054
2018-04-30T03:30:45.383Z,99042
2018-04-30T03:33:13.531Z,99029
2018-04-30T03:35:41.672Z,99013
2018-04-30T03:38:09.821Z,99011
2018-04-30T03:40:38.765Z,99019
2018-04-30T03:43:06.905Z,99018
2018-04-30T03:45:35.095Z,99010
2018-04-30T03:48:03.275Z,98994
2018-04-30T03:50:31.410Z,98989
2018-04-30T03:52:59.546Z,98992
2018-04-30T03:55:27.704Z,98989
2018-04-30T03:57:55.876Z,98981
2018-04-30T04:00:41.726Z,98976
2018-04-30T04:03:27.592Z,98993
2018-04-30T04:09:06.368Z,98983
2018-04-30T04:11:34.543Z,98985
2018-04-30T04:14:02.678Z,98987
2018-04-30T04:16:30.823Z,98969
2018-04-30T04:18:59.002Z,98968
2018-04-30T04:21:27.130Z,98968
2018-04-30T04:23:56.049Z,98958
2018-04-30T04:26:24.195Z,98944
2018-04-30T04:28:53.091Z,98945
2018-04-30T04:31:21.233Z,98943
2018-04-30T04:33:49.421Z,98938
2018-04-30T04:36:17.642Z,98924
2018-04-30T04:38:45.851Z,98921
2018-04-30T04:41:14.013Z,98921
2018-04-30T04:43:42.921Z,98919
2018-04-30T04:46:11.407Z,98917
2018-04-30T04:48:39.540Z,98912
2018-04-30T04:51:07.688Z,98899
2018-04-30T04:53:35.810Z,98904
2018-04-30T04:56:04.750Z,98892
2018-04-30T04:58:32.903Z,98887
2018-04-30T05:01:01.821Z,98883
2018-04-30T05:03:30.006Z,98882
2018-04-30T05:05:58.164Z,98884
2018-04-30T05:08:26.305Z,98881
2018-04-30T05:10:54.459Z,98866
2018-04-30T05:13:22.632Z,98866
2018-04-30T05:15:50.778Z,98863
2018-04-30T05:18:19.706Z,98857
2018-04-30T05:20:47.861Z,98853
2018-04-30T05:23:16.016Z,98865
2018-04-30T05:25:44.942Z,98879
2018-04-30T05:28:13.077Z,98892
2018-04-30T05:30:41.338Z,98909
2018-04-30T05:33:09.501Z,98922
2018-04-30T05:35:37.648Z,98930
2018-04-30T05:38:06.236Z,98952
2018-04-30T05:40:34.444Z,98978
2018-04-30T05:43:02.616Z,99001
2018-04-30T05:45:32.163Z,98974
2018-04-30T05:50:36.287Z,98949
2018-04-30T05:53:04.431Z,98937
2018-04-30T05:55:33.536Z,98937
2018-04-30T05:58:02.453Z,98922
2018-04-30T06:00:30.658Z,98917
2018-04-30T06:02:59.529Z,98912
2018-04-30T06:05:27.676Z,98905
2018-04-30T06:07:55.802Z,98903
2018-04-30T06:10:23.952Z,98908
2018-04-30T06:12:52.883Z,98888
2018-04-30T06:15:21.048Z,98893
2018-04-30T06:17:49.187Z,98890
2018-04-30T06:20:18.129Z,98899
2018-04-30T06:22:47.031Z,98875
2018-04-30T06:25:15.165Z,98878
2018-04-30T06:27:43.364Z,98867
2018-04-30T06:30:12.286Z,98861
2018-04-30T06:32:40.480Z,98891
2018-04-30T06:35:08.628Z,98884
2018-04-30T06:37:36.765Z,98899
2018-04-30T06:40:04.951Z,98894
2018-04-30T06:42:33.883Z,98884
2018-04-30T06:45:02.043Z,98882
2018-04-30T06:47:30.321Z,98888
2018-04-30T06:49:58.437Z,98884
2018-04-30T06:52:26.635Z,98896
2018-04-30T06:54:55.495Z,98884
2018-04-30T06:57:23.691Z,98896
2018-04-30T06:59:51.879Z,98898
2018-04-30T07:02:21.909Z,98890
2018-04-30T07:04:50.080Z,98885
2018-04-30T07:07:18.296Z,98879
2018-04-30T07:09:47.539Z,98877
2018-04-30T07:12:16.616Z,98871
2018-04-30T07:14:44.812Z,98858
2018-04-30T07:17:12.954Z,98860
2018-04-30T07:19:41.269Z,98865
2018-04-30T07:22:09.418Z,98861
2018-04-30T07:24:38.325Z,98869
2018-04-30T07:27:06.482Z,98859
2018-04-30T07:29:35.967Z,98858
2018-04-30T07:32:04.174Z,98867
2018-04-30T07:34:33.841Z,98865
2018-04-30T07:37:05.634Z,98860
2018-04-30T07:39:36.372Z,98858
2018-04-30T07:42:05.473Z,98851
2018-04-30T07:44:33.612Z,98854
2018-04-30T07:47:01.779Z,98853
2018-04-30T07:49:29.979Z,98849
2018-04-30T07:51:58.910Z,98854
2018-04-30T07:54:28.803Z,98852
2018-04-30T07:56:56.894Z,98858
2018-04-30T07:59:25.038Z,98840
2018-04-30T08:01:53.602Z,98831
2018-04-30T08:04:29.652Z,98838
2018-04-30T08:06:57.829Z,98850
2018-04-30T08:09:26.757Z,98846
2018-04-30T08:11:54.914Z,98849
2018-04-30T08:14:23.088Z,98854
2018-04-30T08:16:51.273Z,98862
2018-04-30T08:19:19.413Z,98869
2018-04-30T08:21:47.610Z,98880
2018-04-30T08:24:15.764Z,98882
2018-04-30T08:26:43.955Z,98881
2018-04-30T08:29:12.142Z,98875
2018-04-30T08:31:40.296Z,98878
2018-04-30T08:34:08.483Z,98885
2018-04-30T08:36:36.725Z,98882
2018-04-30T08:39:04.879Z,98879
2018-04-30T08:41:33.028Z,98876
2018-04-30T08:44:01.225Z,98886
2018-04-30T08:46:29.358Z,98879
2018-04-30T08:48:57.506Z,98883
2018-04-30T08:51:25.655Z,98883
2018-04-30T08:53:53.855Z,98888
2018-04-30T08:56:22.006Z,98892
2018-04-30T08:58:50.939Z,98889
2018-04-30T09:01:19.148Z,98910
2018-04-30T09:03:47.311Z,98909
2018-04-30T09:06:15.552Z,98906
2018-04-30T09:08:47.265Z,98908
2018-04-30T09:11:15.427Z,98901
2018-04-30T09:13:43.926Z,98899
2018-04-30T09:16:13.919Z,98896
2018-04-30T09:18:42.061Z,98897
2018-04-30T09:21:10.251Z,98893
2018-04-30T09:23:38.471Z,98901
2018-04-30T09:26:06.782Z,98896
2018-04-30T09:28:34.954Z,98892
2018-04-30T09:31:03.210Z,98895
2018-04-30T09:33:31.370Z,98893
2018-04-30T09:35:59.500Z,98886
2018-04-30T09:38:27.640Z,98889
2018-04-30T09:40:55.792Z,98886
2018-04-30T09:43:23.929Z,98896
2018-04-30T09:45:52.117Z,98893
2018-04-30T09:48:21.030Z,98889
2018-04-30T09:50:49.178Z,98899
2018-04-30T09:53:18.365Z,98905
2018-04-30T09:55:47.603Z,98902
2018-04-30T09:58:15.934Z,98913
2018-04-30T10:00:44.153Z,98917
2018-04-30T10:03:12.301Z,98913
2018-04-30T10:05:41.210Z,98921
2018-04-30T10:08:09.419Z,98935
2018-04-30T10:10:37.575Z,98927
2018-04-30T10:13:05.775Z,98920
2018-04-30T10:15:34.026Z,98932
2018-04-30T10:18:02.291Z,98927
2018-04-30T10:20:30.441Z,98929
2018-04-30T10:22:59.358Z,98944
2018-04-30T10:25:27.545Z,98935
2018-04-30T10:27:55.706Z,98941
2018-04-30T10:30:23.857Z,98951
2018-04-30T10:32:52.133Z,98960
2018-04-30T10:35:20.440Z,98962
2018-04-30T10:37:48.718Z,98963
2018-04-30T10:40:16.888Z,98981
2018-04-30T10:42:45.081Z,98989
2018-04-30T10:45:13.323Z,98987
2018-04-30T10:47:41.571Z,98995
2018-04-30T10:50:10.481Z,99008
2018-04-30T10:52:38.698Z,99010
2018-04-30T10:55:06.914Z,99023
2018-04-30T10:57:35.849Z,99023
2018-04-30T11:00:04.040Z,99031
2018-04-30T11:02:32.357Z,99031
2018-04-30T11:05:00.391Z,99052
2018-04-30T11:07:28.561Z,99063
2018-04-30T11:09:56.858Z,99072
2018-04-30T11:12:25.130Z,99058
2018-04-30T11:14:53.288Z,99060
2018-04-30T11:17:21.448Z,99053
2018-04-30T11:19:49.583Z,99052
2018-04-30T11:22:17.788Z,99051
2018-04-30T11:24:45.933Z,99054
2018-04-30T11:27:14.049Z,99050
2018-04-30T11:29:42.190Z,99059
2018-04-30T11:32:10.322Z,99053
2018-04-30T11:34:39.228Z,99053
2018-04-30T11:37:07.450Z,99066
2018-04-30T11:39:35.624Z,99062
2018-04-30T11:42:03.876Z,99079
2018-04-30T11:44:32.016Z,99085
2018-04-30T11:47:00.275Z,99088
2018-04-30T11:49:28.457Z,99091
2018-04-30T11:51:56.622Z,99102
2018-04-30T11:54:24.842Z,99105
2018-04-30T11:56:52.979Z,99102
2018-04-30T11:59:21.293Z,99093
2018-04-30T12:01:49.504Z,99106
2018-04-30T12:04:18.415Z,99120
2018-04-30T12:06:47.516Z,99121
2018-04-30T12:09:15.695Z,99128
2018-04-30T12:11:44.038Z,99135
2018-04-30T12:14:13.095Z,99140
2018-04-30T12:16:41.372Z,99135
2018-04-30T12:19:09.592Z,99138
2018-04-30T12:21:38.509Z,99134
2018-04-30T12:24:06.929Z,99126
2018-04-30T12:26:35.118Z,99131
2018-04-30T12:29:03.285Z,99132
2018-04-30T12:31:31.441Z,99135
2018-04-30T12:33:59.587Z,99134
2018-04-30T12:36:27.790Z,99146
2018-04-30T12:38:55.973Z,99159
2018-04-30T12:41:24.191Z,99170
2018-04-30T12:43:52.380Z,99174
2018-04-30T12:46:20.756Z,99182
2018-04-30T12:48:49.073Z,99193
2018-04-30T12:51:17.307Z,99214
2018-04-30T12:53:45.470Z,99208
2018-04-30T12:56:13.657Z,99198
2018-04-30T12:58:41.849Z,99216
2018-04-30T13:01:10.098Z,99209
2018-04-30T13:03:38.327Z,99214
2018-04-30T13:06:06.549Z,99217
2018-04-30T13:08:34.760Z,99222
2018-04-30T13:11:02.933Z,99222
2018-04-30T13:13:31.082Z,99220
2018-04-30T13:15:59.265Z,99216
2018-04-30T13:18:27.434Z,99217
2018-04-30T13:20:55.590Z,99219
2018-04-30T13:23:23.733Z,99228
2018-04-30T13:25:52.703Z,99228
2018-04-30T13:28:20.834Z,99223
2018-04-30T13:30:50.138Z,99229
2018-04-30T13:33:18.306Z,99244
2018-04-30T13:35:46.482Z,99248
2018-04-30T13:38:15.577Z,99241
2018-04-30T13:40:43.814Z,99251
2018-04-30T13:43:12.762Z,99251
2018-04-30T13:45:40.955Z,99253
2018-04-30T13:48:09.108Z,99245
2018-04-30T13:50:37.640Z,99260
2018-04-30T13:53:06.556Z,99256
2018-04-30T13:55:34.781Z,99252
2018-04-30T13:58:02.963Z,99252
2018-04-30T14:00:31.857Z,99267
2018-04-30T14:03:00.946Z,99263
2018-04-30T14:05:29.864Z,99258
2018-04-30T14:07:58.063Z,99254
2018-04-30T14:10:26.280Z,99244
2018-04-30T14:12:54.430Z,99249
2018-04-30T14:15:23.696Z,99255
2018-04-30T14:17:51.859Z,99262
2018-04-30T14:20:19.998Z,99258
2018-04-30T14:22:48.176Z,99254
2018-04-30T14:25:17.086Z,99245
2018-04-30T14:27:45.236Z,99255
2018-04-30T14:30:13.370Z,99246
2018-04-30T14:32:41.537Z,99258
2018-04-30T14:35:09.709Z,99247
2018-04-30T14:37:37.994Z,99250
2018-04-30T14:40:06.128Z,99251
2018-04-30T14:42:35.143Z,99258
2018-04-30T14:45:03.453Z,99258
2018-04-30T14:47:31.647Z,99248
2018-04-30T14:50:00.630Z,99245
2018-04-30T14:52:29.047Z,99249
2018-04-30T14:54:57.197Z,99237
2018-04-30T14:57:26.161Z,99228
2018-04-30T14:59:54.302Z,99238
2018-04-30T15:02:22.461Z,99220
2018-04-30T15:04:50.602Z,99219
2018-04-30T15:07:19.506Z,99219
2018-04-30T15:09:47.653Z,99216
2018-04-30T15:12:15.794Z,99220
2018-04-30T15:14:44.031Z,99209
2018-04-30T15:17:13.016Z,99211
2018-04-30T15:19:41.172Z,99219
2018-04-30T15:22:10.057Z,99218
2018-04-30T15:24:38.954Z,99214
2018-04-30T15:27:07.849Z,99218
2018-04-30T15:29:37.422Z,99196
2018-04-30T15:32:05.613Z,99202
2018-04-30T15:34:34.666Z,99208
2018-04-30T15:37:02.813Z,99215
2018-04-30T15:39:30.967Z,99215
2018-04-30T15:41:59.911Z,99213
2018-04-30T15:44:28.018Z,99224
2018-04-30T15:46:57.050Z,99223
2018-04-30T15:49:25.190Z,99222
2018-04-30T15:51:54.069Z,99220
2018-04-30T15:54:22.969Z,99217
2018-04-30T15:56:51.893Z,99215
2018-04-30T15:59:20.103Z,99220
2018-04-30T16:01:48.235Z,99220
2018-04-30T16:04:16.385Z,99223
2018-04-30T16:06:45.314Z,99221
2018-04-30T16:09:13.486Z,99215
2018-04-30T16:11:41.669Z,99223
2018-04-30T16:14:10.896Z,99220
2018-04-30T16:16:39.085Z,99217
2018-04-30T16:19:08.023Z,99221
2018-04-30T16:21:36.144Z,99220
2018-04-30T16:24:05.094Z,99215
2018-04-30T16:26:33.230Z,99230
2018-04-30T16:29:01.465Z,99221
2018-04-30T16:31:29.615Z,99226
2018-04-30T16:34:00.907Z,99220
2018-04-30T16:36:29.807Z,99219
2018-04-30T16:38:57.946Z,99231
2018-04-30T16:41:26.092Z,99227
2018-04-30T16:43:54.484Z,99230
2018-04-30T16:46:22.655Z,99236
2018-04-30T16:48:50.910Z,99236
2018-04-30T16:51:19.052Z,99231
2018-04-30T16:53:47.338Z,99249
2018-04-30T16:56:15.474Z,99245
2018-04-30T16:58:44.378Z,99246
2018-04-30T17:01:12.571Z,99245
2018-04-30T17:03:40.763Z,99252
2018-04-30T17:06:09.668Z,99257
2018-04-30T17:08:37.847Z,99254
2018-04-30T17:11:06.005Z,99251
2018-04-30T17:13:34.174Z,99247
2018-04-30T17:16:04.343Z,99253
2018-04-30T17:18:33.240Z,99250
2018-04-30T17:21:02.174Z,99255
2018-04-30T17:23:30.310Z,99253
2018-04-30T17:25:59.371Z,99267
2018-04-30T17:28:27.558Z,99260
2018-04-30T17:30:56.217Z,99265
2018-04-30T17:33:24.518Z,99274
2018-04-30T17:35:52.959Z,99265
2018-04-30T17:38:21.088Z,99268
2018-04-30T17:40:50.022Z,99282
2018-04-30T17:43:18.169Z,99272
2018-04-30T17:45:46.327Z,99272
2018-04-30T17:48:14.592Z,99276
2018-04-30T17:50:42.701Z,99284
2018-04-30T17:53:10.862Z,99292
2018-04-30T17:55:39.027Z,99284
2018-04-30T17:58:07.255Z,99283
2018-04-30T18:00:35.404Z,99288
2018-04-30T18:03:03.545Z,99289
2018-04-30T18:05:31.996Z,99286
2018-04-30T18:08:01.667Z,99288
2018-04-30T18:10:29.893Z,99289
2018-04-30T18:12:58.028Z,99287
2018-04-30T18:15:26.164Z,99294
2018-04-30T18:17:54.318Z,99288
2018-04-30T18:20:22.453Z,99294
2018-04-30T18:22:50.603Z,99298
2018-04-30T18:25:18.776Z,99304
2018-04-30T18:27:46.912Z,99313
2018-04-30T18:30:15.050Z,99308
2018-04-30T18:32:43.185Z,99312
2018-04-30T18:35:11.459Z,99314
2018-04-30T18:37:39.689Z,99324
2018-04-30T18:40:08.152Z,99328
2018-04-30T18:42:37.066Z,99324
2018-04-30T18:45:05.246Z,99336
2018-04-30T18:47:33.467Z,99339
2018-04-30T18:50:01.611Z,99331
2018-04-30T18:52:29.822Z,99343
2018-04-30T18:54:57.902Z,99342
2018-04-30T18:57:26.035Z,99347
2018-04-30T18:59:54.169Z,99349
2018-04-30T19:02:23.091Z,99345
2018-04-30T19:04:51.236Z,99351
2018-04-30T19:07:19.430Z,99348
2018-04-30T19:09:47.604Z,99351
2018-04-30T19:12:15.782Z,99357
2018-04-30T19:14:44.403Z,99364
2018-04-30T19:17:12.583Z,99361
2018-04-30T19:19:41.389Z,99365
2018-04-30T19:22:10.319Z,99372
2018-04-30T19:24:38.479Z,99372
2018-04-30T19:27:06.670Z,99372
2018-04-30T19:29:34.813Z,99376
2018-04-30T19:32:02.970Z,99378
2018-04-30T19:34:31.125Z,99388
2018-04-30T19:36:59.290Z,99386
2018-04-30T19:39:27.423Z,99390
2018-04-30T19:41:55.572Z,99388
2018-04-30T19:44:23.714Z,99382
2018-04-30T19:46:51.921Z,99394
2018-04-30T19:49:20.855Z,99393
2018-04-30T19:51:49.179Z,99391
2018-04-30T19:54:18.222Z,99382
2018-04-30T19:56:46.429Z,99384
2018-04-30T19:59:14.587Z,99385
2018-04-30T20:01:42.743Z,99390
2018-04-30T20:04:10.884Z,99387
2018-04-30T20:06:39.023Z,99393
2018-04-30T20:09:07.132Z,99392
2018-04-30T20:11:35.301Z,99388
2018-04-30T20:14:03.598Z,99393
2018-04-30T20:16:31.779Z,99375
2018-04-30T20:19:00.026Z,99373
2018-04-30T20:21:28.213Z,99370
2018-04-30T20:23:56.550Z,99370
2018-04-30T20:26:25.552Z,99367
2018-04-30T20:28:53.730Z,99375
2018-04-30T20:31:22.782Z,99370
2018-04-30T20:33:51.718Z,99371
2018-04-30T20:36:19.885Z,99361
2018-04-30T20:38:48.817Z,99365
2018-04-30T20:41:17.026Z,99374
2018-04-30T20:43:45.190Z,99360
2018-04-30T20:46:13.357Z,99367
2018-04-30T20:48:41.565Z,99364
2018-04-30T20:51:10.483Z,99367
2018-04-30T20:53:38.726Z,99365
2018-04-30T20:56:06.906Z,99361
2018-04-30T20:58:35.803Z,99360
2018-04-30T21:01:03.993Z,99361
2018-04-30T21:03:32.124Z,99351
2018-04-30T21:06:01.975Z,99346
2018-04-30T21:11:32.556Z,99350
2018-04-30T21:14:00.936Z,99342
2018-04-30T21:16:29.237Z,99347
2018-04-30T21:18:57.398Z,99345
2018-04-30T21:21:25.653Z,99358
2018-04-30T21:23:53.942Z,99339
2018-04-30T21:26:22.162Z,99350
2018-04-30T21:28:50.351Z,99350
2018-04-30T21:31:18.519Z,99344
2018-04-30T21:33:46.726Z,99342
2018-04-30T21:36:14.913Z,99358
2018-04-30T21:38:43.253Z,99353
2018-04-30T21:41:12.182Z,99368
2018-04-30T21:43:40.346Z,99369
2018-04-30T21:46:08.518Z,99361
2018-04-30T21:48:36.683Z,99371
2018-04-30T21:51:04.919Z,99370
2018-04-30T21:53:33.065Z,99356
2018-04-30T21:56:02.212Z,99357
2018-04-30T21:58:30.345Z,99351
2018-04-30T22:00:59.344Z,99366
2018-04-30T22:03:29.101Z,99350
2018-04-30T22:05:57.243Z,99351
2018-04-30T22:08:25.499Z,99345
2018-04-30T22:10:53.644Z,99352
2018-04-30T22:13:21.778Z,99349
2018-04-30T22:15:49.917Z,99350
2018-04-30T22:18:18.090Z,99355
2018-04-30T22:20:46.384Z,99353
2018-04-30T22:23:14.537Z,99349
2018-04-30T22:25:42.694Z,99348
2018-04-30T22:28:11.614Z,99346
2018-04-30T22:30:39.754Z,99341
2018-04-30T22:33:08.701Z,99326
2018-04-30T22:35:36.916Z,99334
2018-04-30T22:38:05.121Z,99329
2018-04-30T22:40:33.342Z,99326
2018-04-30T22:43:02.389Z,99328
2018-04-30T22:45:30.593Z,99317
2018-04-30T22:47:58.732Z,99317
2018-04-30T22:50:26.877Z,99313
2018-04-30T22:52:55.784Z,99316
2018-04-30T22:55:23.942Z,99318
2018-04-30T22:57:53.031Z,99321
2018-04-30T23:00:24.710Z,99318
2018-04-30T23:02:52.856Z,99324
2018-04-30T23:05:21.825Z,99314
2018-04-30T23:07:50.071Z,99314
2018-04-30T23:10:18.209Z,99312
2018-04-30T23:12:47.197Z,99298
2018-04-30T23:15:15.337Z,99297
2018-04-30T23:17:43.486Z,99295
2018-04-30T23:20:11.614Z,99291
2018-04-30T23:22:40.543Z,99293
2018-04-30T23:25:08.665Z,99291
2018-04-30T23:27:36.794Z,99287
2018-04-30T23:30:04.954Z,99288
2018-04-30T23:32:33.082Z,99289
2018-04-30T23:35:01.885Z,99286
2018-04-30T23:37:30.810Z,99279
2018-04-30T23:39:58.979Z,99284
2018-04-30T23:42:27.155Z,99277
2018-04-30T23:44:55.295Z,99284
2018-04-30T23:47:24.228Z,99279
2018-04-30T23:49:52.352Z,99264
2018-04-30T23:52:21.266Z,99274
2018-04-30T23:54:49.399Z,99262
2018-04-30T23:57:18.312Z,99245
2018-04-30T23:59:46.487Z,99254
